Time;durP1;ratioP1;P1;durP2;ratioP2;P2;SDS_P1;SDS_P2;PMS_P1;PMS_P2;Temp;Humidity;BMP_temperature;BMP_pressure;BME280_temperature;BME280_humidity;BME280_pressure;Samples;Min_cycle;Max_cycle;Signal;HPM_P1;HPM_P2
2023/02/25 00:01:31;;;;;;;;;;;;;;;23.57;34.68;94529.97;5044291;28;1565;-68
2023/02/25 00:03:56;;;;;;;;;;;;;;;23.57;34.67;94521.94;5032848;28;1503;-68
2023/02/25 00:06:22;;;;;;;;;;;;;;;23.56;34.94;94525.69;5032511;28;1389;-68
2023/02/25 00:08:48;;;;;;;;;;;;;;;23.56;34.85;94531.03;5032611;28;1585;-68
2023/02/25 00:11:14;;;;;;;;;;;;;;;23.54;34.93;94525.09;5037622;28;1611;-69
2023/02/25 00:13:40;;;;;;;;;;;;;;;23.60;35.20;94514.50;5031545;28;1619;-67
2023/02/25 00:16:06;;;;;;;;;;;;;;;23.67;35.28;94523.19;5032514;28;1589;-67
2023/02/25 00:18:32;;;;;;;;;;;;;;;23.72;35.27;94520.66;5023620;28;1906;-67
2023/02/25 00:20:58;;;;;;;;;;;;;;;23.73;35.17;94520.41;5029993;28;1733;-67
2023/02/25 00:23:23;;;;;;;;;;;;;;;23.73;35.40;94520.41;5022339;28;1554;-67
2023/02/25 00:25:48;;;;;;;;;;;;;;;23.75;35.22;94523.69;5032178;28;1559;-68
2023/02/25 00:28:14;;;;;;;;;;;;;;;23.79;35.13;94524.00;5032541;28;1524;-69
2023/02/25 00:30:41;;;;;;;;;;;;;;;23.80;35.38;94520.28;5018348;28;1573;-69
2023/02/25 00:33:06;;;;;;;;;;;;;;;23.81;35.33;94505.03;5023751;28;1662;-69
2023/02/25 00:35:31;;;;;;;;;;;;;;;23.81;35.26;94511.19;5028508;28;1462;-68
2023/02/25 00:37:57;;;;;;;;;;;;;;;23.81;35.52;94511.19;5032411;28;1902;-68
2023/02/25 00:40:22;;;;;;;;;;;;;;;23.80;35.44;94501.56;5032345;28;1302;-69
2023/02/25 00:42:48;;;;;;;;;;;;;;;23.81;35.40;94497.00;5032363;28;1345;-68
2023/02/25 00:45:13;;;;;;;;;;;;;;;23.81;35.55;94499.69;5037768;28;1470;-70
2023/02/25 00:47:39;;;;;;;;;;;;;;;23.83;35.53;94503.75;5031736;28;1618;-68
2023/02/25 00:50:06;;;;;;;;;;;;;;;23.81;35.53;94486.28;5030107;28;1346;-68
2023/02/25 00:52:32;;;;;;;;;;;;;;;23.79;35.48;94487.34;5031720;28;2003;-68
2023/02/25 00:54:57;;;;;;;;;;;;;;;23.80;35.32;94477.44;5033008;28;1495;-68
2023/02/25 00:57:22;;;;;;;;;;;;;;;23.80;35.59;94482.78;5025699;28;1906;-68
2023/02/25 00:59:48;;;;;;;;;;;;;;;23.81;35.46;94478.25;5035492;28;1563;-68
2023/02/25 01:02:14;;;;;;;;;;;;;;;23.79;35.50;94465.09;5051379;28;1542;-71
2023/02/25 01:04:39;;;;;;;;;;;;;;;23.76;35.43;94463.72;5033520;28;1637;-71
2023/02/25 01:07:04;;;;;;;;;;;;;;;23.77;35.44;94462.66;5030983;28;1036;-71
2023/02/25 01:09:30;;;;;;;;;;;;;;;23.76;35.64;94465.56;5029847;28;1444;-70
2023/02/25 01:11:55;;;;;;;;;;;;;;;23.75;35.44;94459.41;5035710;28;1525;-73
2023/02/25 01:14:21;;;;;;;;;;;;;;;23.69;35.41;94454.16;5051245;28;1562;-72
2023/02/25 01:16:48;;;;;;;;;;;;;;;23.69;35.58;94456.84;5050735;28;1906;-70
2023/02/25 01:19:17;;;;;;;;;;;;;;;23.70;35.61;94453.09;5040650;28;1683;-71
2023/02/25 01:21:43;;;;;;;;;;;;;;;23.70;35.71;94455.78;5034614;28;1961;-71
2023/02/25 01:24:10;;;;;;;;;;;;;;;23.68;35.86;94447.16;5033141;28;1844;-71
2023/02/25 01:26:37;;;;;;;;;;;;;;;23.66;35.86;94450.09;5035445;28;1435;-70
2023/02/25 01:29:07;;;;;;;;;;;;;;;23.66;35.94;94449.28;5035175;28;1602;-71
2023/02/25 01:31:32;;;;;;;;;;;;;;;23.66;36.01;94442.06;5040803;28;1506;-71
2023/02/25 01:33:58;;;;;;;;;;;;;;;23.66;35.92;94441.25;5035144;28;1642;-70
2023/02/25 01:36:24;;;;;;;;;;;;;;;23.65;35.83;94439.59;5034964;28;1898;-71
2023/02/25 01:38:49;;;;;;;;;;;;;;;23.66;35.72;94435.91;5032450;28;1588;-71
2023/02/25 01:41:15;;;;;;;;;;;;;;;23.62;35.95;94438.22;5030266;28;1298;-71
2023/02/25 01:43:40;;;;;;;;;;;;;;;23.65;35.69;94434.25;5045660;28;1458;-72
2023/02/25 01:46:06;;;;;;;;;;;;;;;23.64;35.82;94424.59;5033504;28;1619;-71
2023/02/25 01:48:33;;;;;;;;;;;;;;;23.63;36.08;94439.88;5032218;28;1754;-71
2023/02/25 01:51:05;;;;;;;;;;;;;;;23.62;36.02;94446.25;5023032;28;2026;-72
2023/02/25 01:53:36;;;;;;;;;;;;;;;23.65;35.82;94439.59;5024839;28;1487;-71
2023/02/25 01:56:02;;;;;;;;;;;;;;;23.64;35.98;94440.66;5034338;28;1844;-73
2023/02/25 01:58:27;;;;;;;;;;;;;;;23.65;35.81;94436.94;5034480;28;1902;-74
2023/02/25 02:00:54;;;;;;;;;;;;;;;23.63;35.96;94431.81;5034367;28;1450;-74
2023/02/25 02:03:20;;;;;;;;;;;;;;;23.62;35.78;94422.16;5033595;28;877;-74
2023/02/25 02:05:51;;;;;;;;;;;;;;;23.64;36.00;94432.63;5026534;28;1487;-74
2023/02/25 02:08:17;;;;;;;;;;;;;;;23.65;35.93;94436.94;5034330;28;1318;-74
2023/02/25 02:10:42;;;;;;;;;;;;;;;23.65;36.16;94423.53;5033841;28;1719;-74
2023/02/25 02:13:07;;;;;;;;;;;;;;;23.65;35.99;94436.94;5034487;28;891;-74
2023/02/25 02:15:36;;;;;;;;;;;;;;;23.67;36.10;94434.84;5023155;28;1452;-73
2023/02/25 02:18:02;;;;;;;;;;;;;;;23.64;36.04;94417.38;5033958;28;1906;-73
2023/02/25 02:20:36;;;;;;;;;;;;;;;23.66;36.25;94427.88;5048940;28;1707;-74
2023/02/25 02:23:37;;;;;;;;;;;;;;;23.63;36.22;94413.09;5032492;28;1734;-74
2023/02/25 02:26:21;;;;;;;;;;;;;;;23.62;36.28;94406.09;4936477;29;1412;-74
2023/02/25 02:28:49;;;;;;;;;;;;;;;23.62;36.24;94405.28;5022077;28;1567;-74
2023/02/25 02:31:18;;;;;;;;;;;;;;;23.63;36.10;94406.91;5045656;28;1477;-74
2023/02/25 02:34:05;;;;;;;;;;;;;;;23.63;36.28;94404.25;5048750;28;1855;-73
2023/02/25 02:36:48;;;;;;;;;;;;;;;23.64;36.10;94392.47;5014145;28;1899;-73
2023/02/25 02:39:25;;;;;;;;;;;;;;;23.64;36.33;94392.47;5023740;28;1651;-73
2023/02/25 02:41:50;;;;;;;;;;;;;;;23.63;36.20;94383.63;5048312;28;1694;-73
2023/02/25 02:44:21;;;;;;;;;;;;;;;23.62;36.30;94384.66;5032461;28;1552;-73
2023/02/25 02:46:54;;;;;;;;;;;;;;;23.65;36.20;94378.00;5048533;28;1449;-73
2023/02/25 02:49:25;;;;;;;;;;;;;;;23.64;36.53;94387.13;5025983;28;1531;-73
2023/02/25 02:51:56;;;;;;;;;;;;;;;23.65;36.39;94372.66;5023677;28;1552;-73
2023/02/25 02:54:24;;;;;;;;;;;;;;;23.64;36.33;94377.22;5032539;28;1529;-73
2023/02/25 02:56:51;;;;;;;;;;;;;;;23.64;36.45;94371.84;5032390;28;1932;-71
2023/02/25 02:59:20;;;;;;;;;;;;;;;23.64;36.26;94361.16;5047783;28;1531;-71
2023/02/25 03:01:51;;;;;;;;;;;;;;;23.63;36.28;94364.88;5022672;28;1218;-73
2023/02/25 03:04:19;;;;;;;;;;;;;;;23.65;36.17;94362.78;5048738;28;1495;-73
2023/02/25 03:06:47;;;;;;;;;;;;;;;23.64;36.08;94353.13;5031895;28;1708;-73
2023/02/25 03:09:18;;;;;;;;;;;;;;;23.64;36.41;94357.66;5033287;28;1495;-73
2023/02/25 03:11:43;;;;;;;;;;;;;;;23.64;36.44;94363.00;5027124;28;1686;-73
2023/02/25 03:14:10;;;;;;;;;;;;;;;23.63;36.43;94369.44;5028232;28;1428;-73
2023/02/25 03:16:55;;;;;;;;;;;;;;;23.63;36.33;94361.41;5047693;28;1910;-73
2023/02/25 03:19:44;;;;;;;;;;;;;;;23.65;36.47;94359.28;5014281;28;2093;-73
2023/02/25 03:22:12;;;;;;;;;;;;;;;23.65;36.32;94359.28;5013891;28;1472;-74
2023/02/25 03:24:56;;;;;;;;;;;;;;;23.66;36.34;94368.94;5038847;28;1510;-73
2023/02/25 03:27:24;;;;;;;;;;;;;;;23.60;36.87;94365.38;5031782;28;1439;-71
2023/02/25 03:29:50;;;;;;;;;;;;;;;23.69;36.74;94353.22;5032004;28;1860;-72
2023/02/25 03:32:17;;;;;;;;;;;;;;;23.68;36.67;94356.94;5033176;28;954;-71
2023/02/25 03:34:45;;;;;;;;;;;;;;;23.67;36.29;94363.34;5043017;28;1436;-72
2023/02/25 03:37:15;;;;;;;;;;;;;;;23.68;36.55;94367.66;5027419;28;1898;-70
2023/02/25 03:39:42;;;;;;;;;;;;;;;23.68;36.53;94350.75;5032321;28;1612;-70
2023/02/25 03:42:11;;;;;;;;;;;;;;;23.66;36.26;94353.69;5031518;28;1630;-70
2023/02/25 03:44:41;;;;;;;;;;;;;;;23.66;36.50;94368.94;5031705;28;1713;-70
2023/02/25 03:47:08;;;;;;;;;;;;;;;23.63;36.49;94362.22;5023143;28;1416;-70
2023/02/25 03:49:36;;;;;;;;;;;;;;;23.60;36.38;94365.38;5032293;28;1608;-70
2023/02/25 03:52:03;;;;;;;;;;;;;;;23.59;36.56;94369.06;5047495;28;1452;-70
2023/02/25 03:54:28;;;;;;;;;;;;;;;23.58;36.53;94365.59;5032460;28;1404;-69
2023/02/25 03:56:54;;;;;;;;;;;;;;;23.58;36.41;94370.94;5030212;28;1973;-71
2023/02/25 03:59:22;;;;;;;;;;;;;;;23.56;36.54;94359.69;5023128;28;1422;-70
2023/02/25 04:01:49;;;;;;;;;;;;;;;23.55;36.21;94341.97;5031456;28;1366;-69
2023/02/25 04:04:14;;;;;;;;;;;;;;;23.54;36.16;94340.38;5031688;28;1727;-70
2023/02/25 04:06:39;;;;;;;;;;;;;;;23.57;36.14;94350.59;5030431;28;1359;-70
2023/02/25 04:09:05;;;;;;;;;;;;;;;23.57;36.26;94329.16;5023752;28;1341;-71
2023/02/25 04:11:30;;;;;;;;;;;;;;;23.56;36.15;94318.69;5031319;28;1281;-70
2023/02/25 04:13:56;;;;;;;;;;;;;;;23.51;36.14;94332.81;5030903;28;1341;-71
2023/02/25 04:16:21;;;;;;;;;;;;;;;23.53;36.01;94329.88;5026800;28;1824;-71
2023/02/25 04:18:46;;;;;;;;;;;;;;;23.46;36.36;94338.06;5032108;28;1931;-71
2023/02/25 04:21:30;;;;;;;;;;;;;;;23.50;36.54;94344.56;5021713;28;1746;-71
2023/02/25 04:23:56;;;;;;;;;;;;;;;23.47;36.80;94354.94;5030373;28;1309;-71
2023/02/25 04:26:21;;;;;;;;;;;;;;;23.44;39.14;94366.94;5032101;28;1257;-70
2023/02/25 04:28:46;;;;;;;;;;;;;;;23.51;36.76;94366.81;5030127;28;1746;-71
2023/02/25 04:31:12;;;;;;;;;;;;;;;23.41;38.21;94362.06;5030101;28;1257;-71
2023/02/25 04:33:37;;;;;;;;;;;;;;;23.39;38.28;94358.81;5029071;28;1392;-70
2023/02/25 04:36:03;;;;;;;;;;;;;;;23.42;37.20;94344.94;5034006;28;1285;-70
2023/02/25 04:38:28;;;;;;;;;;;;;;;23.50;36.98;94341.06;5035407;28;1906;-71
2023/02/25 04:40:53;;;;;;;;;;;;;;;23.57;37.12;94333.72;5034983;28;1763;-70
2023/02/25 04:43:19;;;;;;;;;;;;;;;23.60;37.04;94337.78;5026363;28;1344;-70
2023/02/25 04:45:45;;;;;;;;;;;;;;;23.57;36.78;94328.38;5032297;28;1230;-70
2023/02/25 04:48:10;;;;;;;;;;;;;;;23.54;36.98;94316.28;5035530;28;1310;-71
2023/02/25 04:50:36;;;;;;;;;;;;;;;23.55;36.63;94314.41;5034664;28;1891;-71
2023/02/25 04:53:01;;;;;;;;;;;;;;;23.63;36.64;94315.88;5033940;28;1574;-70
2023/02/25 04:55:27;;;;;;;;;;;;;;;23.65;36.97;94317.25;5026383;28;1465;-71
2023/02/25 04:57:52;;;;;;;;;;;;;;;23.58;36.75;94316.59;5035144;28;1918;-71
2023/02/25 05:00:19;;;;;;;;;;;;;;;23.49;36.84;94294.75;5034564;28;1743;-72
2023/02/25 05:02:45;;;;;;;;;;;;;;;23.54;36.91;94297.53;5050309;28;1425;-72
2023/02/25 05:05:11;;;;;;;;;;;;;;;23.60;36.54;94297.63;5030551;28;1834;-74
2023/02/25 05:07:37;;;;;;;;;;;;;;;23.61;36.55;94285.84;5029425;28;1342;-73
2023/02/25 05:10:03;;;;;;;;;;;;;;;23.62;36.55;94287.47;5035609;28;1389;-73
2023/02/25 05:12:29;;;;;;;;;;;;;;;23.59;36.76;94283.41;5035300;28;1883;-72
2023/02/25 05:14:54;;;;;;;;;;;;;;;23.62;36.63;94282.09;5035252;28;1237;-73
2023/02/25 05:17:19;;;;;;;;;;;;;;;23.61;36.89;94285.84;5025945;28;1906;-72
2023/02/25 05:19:44;;;;;;;;;;;;;;;23.61;36.98;94285.84;5049677;28;1394;-71
2023/02/25 05:22:10;;;;;;;;;;;;;;;23.62;36.99;94271.41;5035328;28;1610;-73
2023/02/25 05:24:35;;;;;;;;;;;;;;;23.63;36.99;94278.41;5022639;28;1950;-74
2023/02/25 05:27:09;;;;;;;;;;;;;;;23.54;37.20;94275.31;5035305;28;1590;-73
2023/02/25 05:29:35;;;;;;;;;;;;;;;23.56;36.95;94290.06;5025669;28;1227;-74
2023/02/25 05:32:00;;;;;;;;;;;;;;;23.50;36.98;94296.38;5042727;28;1334;-72
2023/02/25 05:34:25;;;;;;;;;;;;;;;23.51;36.81;94291.84;5034292;28;1822;-73
2023/02/25 05:36:50;;;;;;;;;;;;;;;22.32;28.55;94305.78;5034708;28;1921;-72
2023/02/25 05:39:16;;;;;;;;;;;;;;;19.82;31.74;94343.16;5030787;28;1325;-72
2023/02/25 05:41:41;;;;;;;;;;;;;;;18.96;33.91;94323.19;5028560;28;1353;-72
2023/02/25 05:44:07;;;;;;;;;;;;;;;18.96;33.97;94338.34;5033536;28;1405;-71
2023/02/25 05:46:32;;;;;;;;;;;;;;;19.00;33.32;94337.69;5035005;28;1441;-71
2023/02/25 05:48:57;;;;;;;;;;;;;;;18.86;33.49;94322.81;5049159;28;1948;-71
2023/02/25 05:51:23;;;;;;;;;;;;;;;18.98;33.54;94373.47;5025771;28;1527;-71
2023/02/25 05:53:49;;;;;;;;;;;;;;;18.82;33.46;94353.53;5032617;28;1768;-71
2023/02/25 05:56:16;;;;;;;;;;;;;;;18.93;33.22;94371.47;5034802;28;1521;-71
2023/02/25 05:58:41;;;;;;;;;;;;;;;18.89;33.66;94372.91;5034315;28;1961;-72
2023/02/25 06:01:12;;;;;;;;;;;;;;;18.82;33.48;94361.50;5037982;28;1842;-72
2023/02/25 06:03:38;;;;;;;;;;;;;;;19.05;32.86;94393.69;5023938;28;1535;-72
2023/02/25 06:06:04;;;;;;;;;;;;;;;18.68;33.01;94359.88;5033705;28;1694;-72
2023/02/25 06:08:29;;;;;;;;;;;;;;;18.65;33.64;94393.78;5033311;28;1228;-72
2023/02/25 06:10:55;;;;;;;;;;;;;;;18.80;33.42;94400.72;5034031;28;1562;-72
2023/02/25 06:13:20;;;;;;;;;;;;;;;18.52;32.93;94380.53;5031218;28;842;-72
2023/02/25 06:15:45;;;;;;;;;;;;;;;18.21;33.40;94407.75;5028325;28;1066;-72
2023/02/25 06:18:11;;;;;;;;;;;;;;;17.71;34.16;94413.41;5033569;28;1914;-72
2023/02/25 06:20:36;;;;;;;;;;;;;;;17.25;34.86;94371.72;5032194;28;1973;-72
2023/02/25 06:23:02;;;;;;;;;;;;;;;17.83;34.21;94394.28;5033379;28;1298;-72
2023/02/25 06:25:28;;;;;;;;;;;;;;;17.75;33.90;94374.84;5025099;28;1491;-72
2023/02/25 06:27:57;;;;;;;;;;;;;;;17.65;34.21;94360.38;5033954;28;1003;-71
2023/02/25 06:30:23;;;;;;;;;;;;;;;18.32;33.11;94372.59;5034250;28;866;-72
2023/02/25 06:32:48;;;;;;;;;;;;;;;18.77;31.99;94366.63;5021148;28;1683;-72
2023/02/25 06:35:13;;;;;;;;;;;;;;;18.24;32.95;94358.72;5033386;28;1555;-72
2023/02/25 06:37:39;;;;;;;;;;;;;;;18.13;33.22;94387.56;5022380;28;1910;-72
2023/02/25 06:40:06;;;;;;;;;;;;;;;18.09;33.26;94366.91;5032324;28;1741;-72
2023/02/25 06:42:32;;;;;;;;;;;;;;;17.86;33.22;94356.72;5033457;28;1638;-71
2023/02/25 06:44:57;;;;;;;;;;;;;;;18.01;33.26;94370.59;5048730;28;1449;-72
2023/02/25 06:47:22;;;;;;;;;;;;;;;18.12;33.12;94359.34;5031196;28;1417;-72
2023/02/25 06:49:48;;;;;;;;;;;;;;;18.17;33.87;94354.25;5025248;28;1911;-74
2023/02/25 06:52:13;;;;;;;;;;;;;;;18.62;32.73;94362.34;5033256;28;1342;-74
2023/02/25 06:54:38;;;;;;;;;;;;;;;18.90;32.05;94352.44;5048546;28;1432;-72
2023/02/25 06:57:04;;;;;;;;;;;;;;;18.75;32.37;94360.69;5033298;28;1898;-74
2023/02/25 06:59:29;;;;;;;;;;;;;;;18.58;32.96;94355.78;5024068;28;1632;-72
2023/02/25 07:01:54;;;;;;;;;;;;;;;18.25;33.74;94339.94;5030032;28;1682;-72
2023/02/25 07:04:20;;;;;;;;;;;;;;;19.46;33.05;94330.47;5033569;28;1408;-72
2023/02/25 07:06:45;;;;;;;;;;;;;;;20.19;32.46;94333.41;5033542;28;1572;-72
2023/02/25 07:09:10;;;;;;;;;;;;;;;20.37;31.16;94321.16;5030656;28;1938;-72
2023/02/25 07:11:36;;;;;;;;;;;;;;;19.64;31.81;94311.94;5035380;28;1843;-70
2023/02/25 07:14:02;;;;;;;;;;;;;;;19.14;32.13;94311.03;5032352;28;1728;-70
2023/02/25 07:16:28;;;;;;;;;;;;;;;19.12;31.97;94294.47;5048688;28;1266;-70
2023/02/25 07:18:54;;;;;;;;;;;;;;;19.05;32.12;94303.31;5032065;28;1918;-70
2023/02/25 07:21:20;;;;;;;;;;;;;;;19.20;31.89;94286.25;5033397;28;968;-71
2023/02/25 07:23:45;;;;;;;;;;;;;;;19.04;32.01;94277.78;5023537;28;1091;-71
2023/02/25 07:26:11;;;;;;;;;;;;;;;19.19;31.68;94280.13;5033208;28;980;-71
2023/02/25 07:28:37;;;;;;;;;;;;;;;19.24;32.05;94290.09;5031851;28;1172;-71
2023/02/25 07:31:03;;;;;;;;;;;;;;;19.53;31.37;94281.53;5031813;28;1500;-71
2023/02/25 07:33:29;;;;;;;;;;;;;;;19.37;31.70;94278.56;5026733;28;1077;-71
2023/02/25 07:35:55;;;;;;;;;;;;;;;19.46;31.60;94254.16;5028923;28;1655;-68
2023/02/25 07:38:20;;;;;;;;;;;;;;;19.26;31.70;94248.16;5032992;28;1969;-70
2023/02/25 07:40:46;;;;;;;;;;;;;;;19.45;31.38;94252.53;5048734;28;1223;-70
2023/02/25 07:43:11;;;;;;;;;;;;;;;19.43;31.32;94256.44;5033026;28;949;-70
2023/02/25 07:45:36;;;;;;;;;;;;;;;19.14;31.52;94234.75;5023446;28;1078;-71
2023/02/25 07:48:02;;;;;;;;;;;;;;;19.21;31.58;94242.69;5033095;28;920;-71
2023/02/25 07:50:27;;;;;;;;;;;;;;;19.33;31.40;94230.34;5032997;28;935;-71
2023/02/25 07:52:53;;;;;;;;;;;;;;;19.48;31.14;94227.34;5032900;28;870;-71
2023/02/25 07:55:18;;;;;;;;;;;;;;;19.49;31.19;94240.41;5047654;28;1255;-71
2023/02/25 07:57:44;;;;;;;;;;;;;;;19.57;30.90;94231.34;5023581;28;1973;-70
2023/02/25 08:00:10;;;;;;;;;;;;;;;19.47;30.83;94215.91;5032631;28;1209;-70
2023/02/25 08:02:36;;;;;;;;;;;;;;;19.56;30.95;94224.41;5033160;28;870;-70
2023/02/25 08:05:01;;;;;;;;;;;;;;;19.62;30.83;94214.75;5036645;28;869;-70
2023/02/25 08:07:27;;;;;;;;;;;;;;;19.72;30.82;94209.75;5030804;28;1166;-70
2023/02/25 08:09:53;;;;;;;;;;;;;;;19.57;30.98;94217.25;5032082;28;1067;-70
2023/02/25 08:12:18;;;;;;;;;;;;;;;19.56;30.98;94187.16;5051495;28;1198;-70
2023/02/25 08:14:45;;;;;;;;;;;;;;;19.51;31.55;94200.31;5036796;28;822;-70
2023/02/25 08:17:10;;;;;;;;;;;;;;;19.74;30.70;94221.81;5036728;28;1914;-70
2023/02/25 08:19:35;;;;;;;;;;;;;;;19.80;31.06;94193.50;5025739;28;1361;-70
2023/02/25 08:22:01;;;;;;;;;;;;;;;19.83;30.70;94195.72;5036687;28;874;-70
2023/02/25 08:24:26;;;;;;;;;;;;;;;19.92;30.64;94190.94;5036583;28;981;-70
2023/02/25 08:26:53;;;;;;;;;;;;;;;19.94;30.96;94196.84;5036876;28;806;-70
2023/02/25 08:29:18;;;;;;;;;;;;;;;19.92;30.96;94213.06;5036502;28;838;-70
2023/02/25 08:31:45;;;;;;;;;;;;;;;20.00;30.99;94172.81;5025458;28;1210;-70
2023/02/25 08:34:11;;;;;;;;;;;;;;;19.98;30.99;94179.41;5035155;28;1196;-70
2023/02/25 08:36:37;;;;;;;;;;;;;;;20.14;30.78;94201.97;5036606;28;1898;-70
2023/02/25 08:39:02;;;;;;;;;;;;;;;20.16;30.67;94192.72;5036654;28;798;-70
2023/02/25 08:41:28;;;;;;;;;;;;;;;20.07;30.82;94182.59;5031594;28;1068;-70
2023/02/25 08:43:55;;;;;;;;;;;;;;;20.14;30.86;94201.97;5031445;28;1175;-71
2023/02/25 08:46:21;;;;;;;;;;;;;;;20.10;31.00;94163.50;5036190;28;865;-71
2023/02/25 08:48:50;;;;;;;;;;;;;;;20.13;30.95;94176.38;5036498;28;802;-71
2023/02/25 08:51:16;;;;;;;;;;;;;;;20.12;30.85;94153.44;5036179;28;893;-71
2023/02/25 08:53:41;;;;;;;;;;;;;;;20.12;30.88;94178.22;5040922;28;1289;-71
2023/02/25 08:56:08;;;;;;;;;;;;;;;20.10;30.86;94144.88;5036083;28;889;-71
2023/02/25 08:58:34;;;;;;;;;;;;;;;20.16;30.99;94194.56;5035785;28;1969;-71
2023/02/25 09:00:59;;;;;;;;;;;;;;;20.26;30.55;94127.44;5035501;28;1476;-71
2023/02/25 09:03:24;;;;;;;;;;;;;;;20.16;31.20;94173.28;5036000;28;968;-71
2023/02/25 09:05:54;;;;;;;;;;;;;;;20.27;30.67;94193.81;5040710;28;1250;-71
2023/02/25 09:08:19;;;;;;;;;;;;;;;20.17;30.95;94157.03;5035660;28;853;-71
2023/02/25 09:10:44;;;;;;;;;;;;;;;20.04;31.06;94181.19;5035633;28;803;-71
2023/02/25 09:13:10;;;;;;;;;;;;;;;20.19;31.07;94164.81;5035621;28;949;-71
2023/02/25 09:15:35;;;;;;;;;;;;;;;20.14;30.98;94159.34;5028382;28;1796;-69
2023/02/25 09:18:01;;;;;;;;;;;;;;;20.19;30.56;94159.50;5028722;28;1977;-69
2023/02/25 09:20:26;;;;;;;;;;;;;;;20.16;31.14;94138.66;5035014;28;1608;-71
2023/02/25 09:22:53;;;;;;;;;;;;;;;20.04;31.46;94143.91;5033303;28;1936;-68
2023/02/25 09:25:19;;;;;;;;;;;;;;;20.02;31.16;94148.63;5035423;28;933;-68
2023/02/25 09:27:44;;;;;;;;;;;;;;;20.12;31.13;94126.81;5025157;28;1438;-69
2023/02/25 09:30:09;;;;;;;;;;;;;;;20.43;31.20;94153.25;5050391;28;1480;-67
2023/02/25 09:32:35;;;;;;;;;;;;;;;20.81;30.92;94156.66;5034960;28;1527;-68
2023/02/25 09:35:01;;;;;;;;;;;;;;;21.03;30.80;94131.09;5034006;28;1706;-68
2023/02/25 09:37:26;;;;;;;;;;;;;;;21.05;30.83;94138.84;5034773;28;1902;-70
2023/02/25 09:39:52;;;;;;;;;;;;;;;21.10;30.75;94131.00;5040849;28;1207;-69
2023/02/25 09:42:19;;;;;;;;;;;;;;;21.13;30.71;94111.84;5035029;28;1475;-72
2023/02/25 09:44:47;;;;;;;;;;;;;;;21.32;30.74;94100.03;5048732;28;1844;-68
2023/02/25 09:47:18;;;;;;;;;;;;;;;21.32;30.97;94110.72;5034068;28;1669;-68
2023/02/25 09:50:03;;;;;;;;;;;;;;;21.34;30.87;94107.81;5028948;28;1786;-70
2023/02/25 09:52:40;;;;;;;;;;;;;;;21.39;30.51;94099.13;5031645;28;1859;-69
2023/02/25 09:55:06;;;;;;;;;;;;;;;21.45;30.90;94108.88;5032189;28;1400;-69
2023/02/25 09:57:35;;;;;;;;;;;;;;;21.46;30.55;94059.78;5049888;28;1955;-70
2023/02/25 10:00:01;;;;;;;;;;;;;;;21.47;30.47;94082.78;5048421;28;1425;-68
2023/02/25 10:02:26;;;;;;;;;;;;;;;21.51;30.46;94097.28;5024544;28;1481;-68
2023/02/25 10:04:57;;;;;;;;;;;;;;;21.52;30.38;94043.69;5034181;28;1368;-68
2023/02/25 10:07:25;;;;;;;;;;;;;;;21.54;30.27;94056.78;5049154;28;1349;-68
2023/02/25 10:10:17;;;;;;;;;;;;;;;21.58;30.49;94073.97;5028619;28;1293;-68
2023/02/25 10:13:01;;;;;;;;;;;;;;;21.62;30.51;94125.81;5001241;28;1384;-69
2023/02/25 10:15:49;;;;;;;;;;;;;;;21.63;30.35;94038.53;5034040;28;1225;-69
2023/02/25 10:18:22;;;;;;;;;;;;;;;21.62;30.59;94029.72;5034439;28;1969;-69
2023/02/25 10:20:52;;;;;;;;;;;;;;;21.65;30.42;94036.44;5032696;28;1394;-69
2023/02/25 10:23:23;;;;;;;;;;;;;;;21.67;30.51;94040.50;5029118;28;1799;-70
2023/02/25 10:25:54;;;;;;;;;;;;;;;21.69;30.31;94065.13;5027475;28;1408;-71
2023/02/25 10:28:21;;;;;;;;;;;;;;;21.71;30.43;94055.00;5039310;28;1344;-70
2023/02/25 10:31:06;;;;;;;;;;;;;;;21.73;30.41;94026.22;5034204;28;1315;-70
2023/02/25 10:33:36;;;;;;;;;;;;;;;21.73;30.28;94020.06;5014683;28;1488;-70
2023/02/25 10:36:05;;;;;;;;;;;;;;;21.73;30.52;94028.88;5022256;28;1442;-70
2023/02/25 10:38:31;;;;;;;;;;;;;;;21.74;30.46;94035.88;5034050;28;1902;-70
2023/02/25 10:40:57;;;;;;;;;;;;;;;21.76;30.46;94000.91;5032546;28;1609;-70
2023/02/25 10:43:23;;;;;;;;;;;;;;;21.78;30.19;94012.97;5033516;28;1310;-70
2023/02/25 10:45:54;;;;;;;;;;;;;;;21.82;30.24;94028.53;5033485;28;1721;-70
2023/02/25 10:48:21;;;;;;;;;;;;;;;21.85;30.29;94020.03;5024557;28;1408;-70
2023/02/25 10:51:05;;;;;;;;;;;;;;;21.85;30.39;94017.38;5046406;28;1686;-70
2023/02/25 10:53:31;;;;;;;;;;;;;;;21.87;30.27;93983.25;5032036;28;1553;-71
2023/02/25 10:55:58;;;;;;;;;;;;;;;21.86;30.40;94002.97;5033774;28;917;-70
2023/02/25 10:58:23;;;;;;;;;;;;;;;21.88;30.23;93979.50;5022978;28;1901;-70
2023/02/25 11:00:57;;;;;;;;;;;;;;;21.90;30.36;93977.41;5033164;28;1552;-70
2023/02/25 11:03:23;;;;;;;;;;;;;;;21.93;30.33;93974.28;5033210;28;1159;-71
2023/02/25 11:05:48;;;;;;;;;;;;;;;21.95;30.47;93986.34;5033179;28;1145;-70
2023/02/25 11:08:31;;;;;;;;;;;;;;;21.95;30.28;93975.66;5032858;28;1881;-70
2023/02/25 11:11:04;;;;;;;;;;;;;;;21.96;30.06;93977.25;5023783;28;1607;-70
2023/02/25 11:13:33;;;;;;;;;;;;;;;21.95;30.40;93972.97;5031754;28;1380;-71
2023/02/25 11:16:01;;;;;;;;;;;;;;;21.98;30.18;93972.50;5030731;28;1880;-71
2023/02/25 11:18:28;;;;;;;;;;;;;;;22.00;30.21;93961.59;5030242;28;1963;-70
2023/02/25 11:20:59;;;;;;;;;;;;;;;22.00;30.32;93962.41;5022679;28;1551;-70
2023/02/25 11:23:31;;;;;;;;;;;;;;;22.01;30.12;93944.50;5046951;28;1364;-70
2023/02/25 11:25:56;;;;;;;;;;;;;;;22.02;30.30;93938.13;5031194;28;1801;-70
2023/02/25 11:28:21;;;;;;;;;;;;;;;22.02;30.30;93949.59;5032455;28;1246;-69
2023/02/25 11:30:47;;;;;;;;;;;;;;;22.06;30.19;93907.22;5033206;28;843;-69
2023/02/25 11:33:21;;;;;;;;;;;;;;;22.06;30.26;93931.25;5021698;28;1771;-69
2023/02/25 11:35:53;;;;;;;;;;;;;;;22.08;30.28;93936.34;5030659;28;1332;-69
2023/02/25 11:38:31;;;;;;;;;;;;;;;22.08;30.28;93934.47;5032893;28;1902;-69
2023/02/25 11:40:56;;;;;;;;;;;;;;;22.10;30.23;93921.69;5046002;28;1561;-69
2023/02/25 11:43:39;;;;;;;;;;;;;;;22.11;30.28;93939.31;5025799;28;1431;-69
2023/02/25 11:46:05;;;;;;;;;;;;;;;22.12;30.31;93938.31;5031055;28;1814;-68
2023/02/25 11:48:48;;;;;;;;;;;;;;;22.13;30.08;93950.59;5032965;28;1207;-69
2023/02/25 11:51:19;;;;;;;;;;;;;;;22.15;30.20;93943.16;5032449;28;1172;-69
2023/02/25 11:54:03;;;;;;;;;;;;;;;22.15;30.31;93937.81;5033215;28;922;-69
2023/02/25 11:56:58;;;;;;;;;;;;;;;22.17;30.11;93921.53;5025031;28;1035;-69
2023/02/25 11:59:30;;;;;;;;;;;;;;;22.19;30.23;93946.97;4962435;28;1357;-69
2023/02/25 12:02:04;;;;;;;;;;;;;;;22.22;30.18;93943.03;5032944;28;1639;-68
2023/02/25 12:04:30;;;;;;;;;;;;;;;22.26;30.16;93946.03;5031352;28;1341;-68
2023/02/25 12:06:55;;;;;;;;;;;;;;;22.27;30.20;93955.66;5021161;28;1358;-69
2023/02/25 12:09:26;;;;;;;;;;;;;;;22.27;30.18;93958.34;5029146;28;1512;-69
2023/02/25 12:12:10;;;;;;;;;;;;;;;22.28;30.02;93963.41;5030422;28;1674;-69
2023/02/25 12:14:35;;;;;;;;;;;;;;;22.30;30.17;93956.00;5032316;28;2019;-69
2023/02/25 12:17:01;;;;;;;;;;;;;;;22.31;30.09;93946.91;5026236;28;1906;-69
2023/02/25 12:19:44;;;;;;;;;;;;;;;22.35;30.11;93955.28;5027570;28;1317;-69
2023/02/25 12:22:13;;;;;;;;;;;;;;;22.35;30.11;93964.09;5031136;28;1582;-70
2023/02/25 12:24:57;;;;;;;;;;;;;;;22.36;30.06;93956.88;5032693;28;846;-69
2023/02/25 12:27:41;;;;;;;;;;;;;;;22.37;30.04;93966.50;5031671;28;1361;-69
2023/02/25 12:30:32;;;;;;;;;;;;;;;22.38;30.11;93946.78;5021540;28;1581;-69
2023/02/25 12:33:16;;;;;;;;;;;;;;;22.37;30.10;93956.66;5045159;28;1978;-69
2023/02/25 12:35:48;;;;;;;;;;;;;;;22.38;30.14;93949.44;5044105;28;1568;-70
2023/02/25 12:38:16;;;;;;;;;;;;;;;22.39;30.13;93948.38;5020063;28;1906;-69
2023/02/25 12:41:00;;;;;;;;;;;;;;;22.40;30.05;93956.16;5022866;28;1361;-69
2023/02/25 12:43:37;;;;;;;;;;;;;;;22.39;29.96;93921.66;5031155;28;1220;-69
2023/02/25 12:46:05;;;;;;;;;;;;;;;22.39;30.11;93909.09;5030399;28;1364;-69
2023/02/25 12:48:30;;;;;;;;;;;;;;;22.41;29.92;93914.22;5031083;28;1420;-69
2023/02/25 12:51:08;;;;;;;;;;;;;;;22.35;29.91;93893.81;5045721;28;1628;-70
2023/02/25 12:53:53;;;;;;;;;;;;;;;22.41;30.06;93907.00;5026606;28;1353;-69
2023/02/25 12:56:37;;;;;;;;;;;;;;;22.41;29.98;93895.50;5032165;28;1492;-70
2023/02/25 12:59:05;;;;;;;;;;;;;;;22.41;29.95;93879.47;5021790;28;1898;-69
2023/02/25 13:01:45;;;;;;;;;;;;;;;22.42;29.91;93897.13;5049985;28;1517;-68
2023/02/25 13:04:27;;;;;;;;;;;;;;;22.43;29.94;93877.38;5026307;28;1108;-69